Ana Sayfa
METAR-TAF:

METAR-TAF

Havaalanları :

Salak

Maroua, Kamerun

Enlem: 10-27N, Boylam: 014-15E, yükseklik: 423 m

Güncel hava durumu gözlemi

Rapor saat 15:00 UTC de 7 saat ve 51 dakika önce yapıldı.
Sıcaklık
Basınç 1008 hPa
Görüş mesafesi 10 km veya daha fazla
3000 ft yükseklikte parçalı bulutlu
4000 ft yükseklikte parçalı bulutlu, Kümülonimbus.
gök gürültülü fırtına,

METAR: FKKL 201500Z /////KT 9999 TS SCT030 SCT040CB ///// Q1008

Saat: 23:51 (22:51 UTC)

Tahmin

Rapor saat 05:00 UTC de 17 saat ve 51 dakika önce yapıldı.
Ayın 20'si saat 06 UTC'den ayın 20'si saat 18 UTC'ye kadar geçerli Tahmin
Rüzgar değişken yönden 8 kt
Görüş mesafesi 10 km veya daha fazla
1500 m altında bulut yok ve kümülonimbus yok

TAF: FKKL 200500Z 2006/2018 VRB08KT CAVOK

4.000'den fazla havaalanı için hava durumu gözlemleri ve tahminleri (METAR ve TAF raporları).

Kullanılabilir istasyonlar harita üzerinde sarı ve kırmızı noktalarla gösterilir.

İstasyonun adını görmek için fareyi noktanın üzerinde gezdirin.

Sonrasında hava gözlem ve tahminlerini görmek için tıklayın.

Haritayı değiştirmek için: yaklaştırmak için siyah artı işaretli yeşil düğmeye ve uzaklaştırmak için de eksi işaretli düğmeye hızla tıklayın; bitişik haritalar için yeşil okları kullanın.


METAR-TAF: